createdAt,value
2022-10-05T00:02:23.692Z,11.73
2022-10-05T00:07:16.913Z,11.83
2022-10-05T00:09:38.826Z,12.80
2022-10-05T00:12:20.081Z,12.60
2022-10-05T00:14:43.115Z,14.03
2022-10-05T00:17:05.613Z,12.70
2022-10-05T00:19:34.623Z,12.67
2022-10-05T00:22:00.095Z,12.37
2022-10-05T00:24:21.996Z,12.53
2022-10-05T00:26:44.042Z,12.53
2022-10-05T00:29:23.164Z,12.73
2022-10-05T00:31:45.693Z,12.70
2022-10-05T00:34:07.639Z,12.23
2022-10-05T00:36:29.471Z,12.13
2022-10-05T00:38:51.366Z,12.60
2022-10-05T00:42:10.587Z,12.67
2022-10-05T00:45:10.666Z,13.13
2022-10-05T00:47:57.593Z,13.17
2022-10-05T00:50:37.785Z,14.10
2022-10-05T00:53:28.405Z,14.23
2022-10-05T00:56:08.200Z,13.50
2022-10-05T00:59:12.278Z,13.77
2022-10-05T01:02:15.371Z,12.50
2022-10-05T01:04:50.074Z,13.57
2022-10-05T01:07:25.275Z,13.32
2022-10-05T01:10:18.061Z,12.47
2022-10-05T01:13:04.451Z,13.80
2022-10-05T01:15:55.552Z,13.37
2022-10-05T01:18:52.699Z,13.13
2022-10-05T01:21:19.576Z,13.10
2022-10-05T01:24:12.430Z,14.30
2022-10-05T01:27:02.496Z,12.77
2022-10-05T01:29:35.229Z,13.30
2022-10-05T01:32:18.606Z,13.30
2022-10-05T01:34:48.982Z,13.10
2022-10-05T01:37:36.243Z,12.53
2022-10-05T01:40:39.189Z,12.90
2022-10-05T01:43:19.559Z,12.63
2022-10-05T01:45:56.460Z,13.40
2022-10-05T01:48:42.390Z,13.70
2022-10-05T01:51:26.976Z,12.60
2022-10-05T01:54:13.808Z,13.30
2022-10-05T01:57:05.744Z,13.60
2022-10-05T01:59:57.578Z,12.50
2022-10-05T02:02:24.130Z,12.33
2022-10-05T02:05:02.313Z,12.07
2022-10-05T02:07:33.480Z,12.50
2022-10-05T02:10:04.691Z,12.77
2022-10-05T02:12:34.982Z,12.70
2022-10-05T02:15:10.732Z,13.17
2022-10-05T02:17:45.237Z,13.07
2022-10-05T02:20:14.727Z,13.73
2022-10-05T02:22:53.146Z,13.03
2022-10-05T02:25:26.790Z,14.37
2022-10-05T02:28:18.354Z,14.17
2022-10-05T02:30:52.736Z,14.27
2022-10-05T02:33:28.519Z,13.32
2022-10-05T02:35:52.207Z,13.40
2022-10-05T02:38:52.378Z,12.93
2022-10-05T02:41:48.889Z,13.47
2022-10-05T02:44:40.271Z,13.60
2022-10-05T02:47:28.321Z,13.73
2022-10-05T02:50:17.742Z,13.20
2022-10-05T02:53:23.774Z,13.23
2022-10-05T02:56:19.035Z,12.32
2022-10-05T02:59:13.748Z,13.63
2022-10-05T03:01:55.730Z,13.00
2022-10-05T03:04:54.637Z,13.23
2022-10-05T03:07:47.843Z,12.10
2022-10-05T03:10:30.359Z,13.67
2022-10-05T03:13:39.698Z,12.57
2022-10-05T03:16:51.429Z,13.20
2022-10-05T03:19:40.847Z,13.40
2022-10-05T03:22:50.239Z,12.67
2022-10-05T03:25:51.017Z,13.70
2022-10-05T03:28:27.218Z,11.67
2022-10-05T03:31:23.685Z,12.80
2022-10-05T03:33:51.926Z,10.57
2022-10-05T03:36:29.719Z,12.07
2022-10-05T03:39:19.216Z,11.63
2022-10-05T03:41:55.027Z,11.80
2022-10-05T03:44:33.288Z,11.90
2022-10-05T03:47:10.396Z,11.57
2022-10-05T03:49:57.065Z,12.37
2022-10-05T03:52:44.284Z,10.90
2022-10-05T03:55:39.365Z,10.90
2022-10-05T03:58:20.031Z,10.67
2022-10-05T04:00:47.570Z,12.20
2022-10-05T04:03:23.679Z,12.63
2022-10-05T04:05:54.945Z,12.37
2022-10-05T04:08:47.765Z,12.97
2022-10-05T04:11:26.483Z,12.88
2022-10-05T04:13:56.206Z,12.10
2022-10-05T04:16:29.676Z,12.33
2022-10-05T04:19:10.602Z,12.53
2022-10-05T04:21:51.695Z,11.93
2022-10-05T04:24:18.845Z,12.27
2022-10-05T04:27:10.951Z,11.50
2022-10-05T04:29:51.617Z,12.20
2022-10-05T04:32:35.317Z,12.83
2022-10-05T04:35:24.943Z,13.07
2022-10-05T04:38:11.765Z,11.63
2022-10-05T04:41:10.863Z,11.60
2022-10-05T04:44:05.763Z,10.90
2022-10-05T04:47:08.606Z,11.82
2022-10-05T04:50:04.350Z,13.20
2022-10-05T04:55:53.175Z,12.27
2022-10-05T04:59:04.056Z,11.87
2022-10-05T05:02:03.299Z,11.53
2022-10-05T05:04:52.291Z,12.47
2022-10-05T05:07:36.510Z,11.50
2022-10-05T05:10:07.646Z,11.73
2022-10-05T05:12:57.259Z,10.77
2022-10-05T05:15:46.599Z,10.87
2022-10-05T05:18:42.307Z,11.73
2022-10-05T05:21:29.866Z,9.98
2022-10-05T05:24:18.580Z,11.20
2022-10-05T05:27:01.306Z,11.57
2022-10-05T05:29:58.231Z,9.03
2022-10-05T05:32:29.594Z,10.97
2022-10-05T05:35:05.854Z,8.90
2022-10-05T05:38:00.314Z,12.37
2022-10-05T05:40:39.592Z,7.47
2022-10-05T05:43:22.255Z,9.83
2022-10-05T05:46:15.276Z,8.07
2022-10-05T05:48:42.382Z,8.63
2022-10-05T05:51:18.031Z,12.03
2022-10-05T05:53:46.074Z,8.38
2022-10-05T05:56:13.578Z,9.80
2022-10-05T05:59:02.406Z,8.43
2022-10-05T06:01:33.730Z,9.93
2022-10-05T06:04:17.451Z,7.93
2022-10-05T06:06:48.886Z,9.27
2022-10-05T06:09:37.930Z,9.00
2022-10-05T06:12:28.057Z,8.37
2022-10-05T06:15:23.578Z,8.33
2022-10-05T06:17:52.778Z,8.25
2022-10-05T06:21:15.308Z,8.77
2022-10-05T06:23:58.582Z,8.40
2022-10-05T06:27:08.141Z,7.90
2022-10-05T06:30:17.474Z,7.90
2022-10-05T06:33:01.145Z,8.30
2022-10-05T06:35:47.837Z,7.73
2022-10-05T06:38:41.787Z,7.63
2022-10-05T06:42:00.659Z,7.27
2022-10-05T06:44:59.385Z,7.33
2022-10-05T06:47:50.114Z,7.67
2022-10-05T06:50:53.407Z,7.03
2022-10-05T06:54:24.031Z,7.37
2022-10-05T06:57:24.183Z,6.87
2022-10-05T07:00:03.219Z,7.80
2022-10-05T07:02:48.358Z,7.20
2022-10-05T07:05:41.382Z,7.20
2022-10-05T07:08:18.225Z,6.77
2022-10-05T07:11:18.799Z,6.20
2022-10-05T07:14:12.399Z,6.53
2022-10-05T07:16:52.704Z,6.43
2022-10-05T07:19:28.927Z,6.77
2022-10-05T07:22:31.710Z,6.10
2022-10-05T07:25:20.499Z,6.77
2022-10-05T07:27:55.784Z,6.97
2022-10-05T07:30:19.002Z,6.30
2022-10-05T07:33:12.151Z,7.07
2022-10-05T07:36:27.836Z,6.80
2022-10-05T07:39:55.354Z,7.23
2022-10-05T07:42:50.580Z,6.87
2022-10-05T07:45:51.276Z,6.60
2022-10-05T07:48:33.105Z,5.90
2022-10-05T07:51:27.339Z,6.30
2022-10-05T07:54:22.248Z,6.40
2022-10-05T07:56:53.078Z,6.50
2022-10-05T07:59:34.184Z,6.43
2022-10-05T08:02:14.041Z,6.30
2022-10-05T08:05:10.289Z,6.47
2022-10-05T08:07:35.979Z,6.47
2022-10-05T08:10:47.321Z,6.87
2022-10-05T08:13:37.516Z,6.10
2022-10-05T08:16:10.117Z,5.67
2022-10-05T08:19:02.254Z,5.80
2022-10-05T08:21:34.284Z,5.27
2022-10-05T08:24:39.144Z,5.70
2022-10-05T08:27:24.495Z,5.93
2022-10-05T08:32:40.383Z,5.87
2022-10-05T08:35:37.724Z,5.93
2022-10-05T08:38:04.779Z,5.90
2022-10-05T08:40:59.262Z,6.17
2022-10-05T08:43:55.107Z,5.60
2022-10-05T08:46:50.799Z,5.70
2022-10-05T08:52:20.746Z,4.67
2022-10-05T08:54:50.209Z,5.30
2022-10-05T08:57:46.628Z,5.57
2022-10-05T09:00:23.527Z,5.30
2022-10-05T09:03:25.678Z,5.17
2022-10-05T09:07:04.870Z,5.37
2022-10-05T09:10:01.423Z,4.73
2022-10-05T09:12:56.910Z,4.80
2022-10-05T09:16:06.418Z,4.78
2022-10-05T09:19:27.869Z,5.13
2022-10-05T09:22:43.184Z,5.00
2022-10-05T09:25:37.653Z,5.17
2022-10-05T09:28:08.366Z,4.80
2022-10-05T09:31:10.132Z,4.90
2022-10-05T09:33:45.631Z,4.73
2022-10-05T09:36:24.334Z,4.43
2022-10-05T09:39:10.827Z,5.03
2022-10-05T09:41:52.115Z,5.00
2022-10-05T09:44:42.638Z,5.27
2022-10-05T09:47:29.314Z,5.03
2022-10-05T09:50:28.074Z,5.40
2022-10-05T09:53:25.673Z,5.10
2022-10-05T09:56:05.887Z,5.30
2022-10-05T09:58:47.451Z,5.63
2022-10-05T10:01:56.093Z,4.83
2022-10-05T10:04:53.581Z,5.27
2022-10-05T10:07:42.928Z,4.77
2022-10-05T10:11:01.892Z,4.70
2022-10-05T10:13:55.760Z,4.40
2022-10-05T10:16:35.866Z,4.77
2022-10-05T10:19:48.603Z,4.70
2022-10-05T10:22:31.062Z,4.33
2022-10-05T10:25:25.279Z,3.77
2022-10-05T10:28:05.825Z,4.00
2022-10-05T10:31:01.772Z,3.97
2022-10-05T10:33:58.955Z,4.37
2022-10-05T10:36:58.569Z,3.78
2022-10-05T10:39:45.227Z,3.70
2022-10-05T10:42:37.472Z,4.37
2022-10-05T10:45:22.837Z,4.20
2022-10-05T10:47:44.608Z,3.40
2022-10-05T10:51:18.524Z,3.65
2022-10-05T10:54:23.490Z,3.80
2022-10-05T10:57:30.644Z,3.20
2022-10-05T11:00:29.120Z,3.72
2022-10-05T11:02:57.121Z,3.78
2022-10-05T11:05:52.997Z,3.17
2022-10-05T11:08:39.121Z,3.30
2022-10-05T11:11:26.977Z,3.45
2022-10-05T11:14:54.432Z,3.60
2022-10-05T11:17:44.833Z,3.10
2022-10-05T11:20:28.651Z,3.40
2022-10-05T11:23:38.630Z,3.00
2022-10-05T11:26:28.151Z,2.70
2022-10-05T11:29:34.348Z,2.95
2022-10-05T11:32:43.970Z,3.00
2022-10-05T11:35:14.771Z,2.90
2022-10-05T11:38:14.407Z,2.70
2022-10-05T11:41:22.419Z,2.63
2022-10-05T11:44:35.441Z,2.70
2022-10-05T11:47:11.170Z,2.80
2022-10-05T11:49:44.448Z,2.60
2022-10-05T11:52:23.266Z,3.45
2022-10-05T11:55:23.409Z,2.60
2022-10-05T11:58:01.684Z,2.72
2022-10-05T12:00:36.158Z,2.65
2022-10-05T12:03:20.472Z,2.70
2022-10-05T12:05:56.935Z,2.70
2022-10-05T12:08:51.915Z,3.10
2022-10-05T12:11:47.477Z,2.80
2022-10-05T12:17:25.125Z,2.55
2022-10-05T12:20:02.898Z,3.22
2022-10-05T12:22:44.774Z,2.67
2022-10-05T12:25:33.313Z,2.70
2022-10-05T12:28:09.688Z,3.10
2022-10-05T12:30:34.537Z,2.70
2022-10-05T12:33:31.116Z,2.80
2022-10-05T12:36:17.821Z,2.80
2022-10-05T12:39:23.402Z,3.10
2022-10-05T12:42:18.542Z,3.20
2022-10-05T12:45:08.371Z,2.60
2022-10-05T12:48:04.047Z,2.53
2022-10-05T12:53:56.237Z,2.60
2022-10-05T12:57:08.259Z,2.60
2022-10-05T13:00:11.194Z,2.22
2022-10-05T13:02:57.440Z,1.95
2022-10-05T13:05:52.559Z,2.38
2022-10-05T13:08:46.210Z,2.03
2022-10-05T13:11:23.754Z,2.00
2022-10-05T13:14:14.319Z,1.70
2022-10-05T13:17:06.906Z,2.22
2022-10-05T13:19:40.482Z,1.80
2022-10-05T13:22:15.764Z,1.80
2022-10-05T13:25:28.584Z,2.00
2022-10-05T13:28:02.542Z,2.10
2022-10-05T13:30:24.843Z,2.10
2022-10-05T13:33:00.069Z,1.85
2022-10-05T13:35:40.284Z,1.90
2022-10-05T13:38:17.200Z,1.70
2022-10-05T13:41:21.846Z,1.52
2022-10-05T13:44:22.547Z,1.60
2022-10-05T13:46:47.140Z,2.03
2022-10-05T13:49:29.529Z,1.95
2022-10-05T13:52:21.999Z,2.00
2022-10-05T13:55:15.306Z,1.92
2022-10-05T13:58:14.243Z,1.80
2022-10-05T14:00:58.469Z,2.05
2022-10-05T14:03:39.119Z,1.87
2022-10-05T14:06:12.254Z,1.95
2022-10-05T14:08:51.719Z,1.80
2022-10-05T14:11:36.084Z,2.17
2022-10-05T14:14:28.231Z,1.73
2022-10-05T14:16:55.551Z,1.83
2022-10-05T14:19:27.982Z,2.20
2022-10-05T14:21:54.816Z,1.70
2022-10-05T14:24:45.172Z,1.88
2022-10-05T14:27:29.095Z,2.35
2022-10-05T14:30:12.278Z,1.90
2022-10-05T14:32:59.532Z,1.90
2022-10-05T14:35:25.388Z,1.98
2022-10-05T14:38:02.904Z,2.22
2022-10-05T14:40:37.073Z,1.75
2022-10-05T14:43:15.528Z,2.10
2022-10-05T14:45:57.752Z,1.92
2022-10-05T14:48:19.835Z,1.75
2022-10-05T14:51:04.606Z,2.40
2022-10-05T14:53:40.878Z,2.00
2022-10-05T14:56:27.195Z,2.00
2022-10-05T14:59:23.112Z,1.92
2022-10-05T15:02:10.937Z,2.20
2022-10-05T15:04:44.363Z,1.92
2022-10-05T15:07:41.020Z,1.90
2022-10-05T15:10:26.854Z,2.10
2022-10-05T15:12:48.912Z,2.03
2022-10-05T15:15:34.551Z,2.00
2022-10-05T15:18:17.431Z,2.60
2022-10-05T15:20:59.547Z,2.60
2022-10-05T15:23:48.992Z,2.78
2022-10-05T15:26:25.834Z,2.45
2022-10-05T15:29:21.960Z,2.80
2022-10-05T15:32:15.303Z,2.40
2022-10-05T15:35:26.418Z,2.55
2022-10-05T15:38:00.231Z,2.13
2022-10-05T15:40:39.667Z,2.05
2022-10-05T15:43:12.732Z,1.63
2022-10-05T15:45:43.184Z,1.80
2022-10-05T15:48:42.331Z,1.83
2022-10-05T15:51:49.489Z,2.00
2022-10-05T15:54:49.818Z,1.90
2022-10-05T15:57:39.870Z,2.50
2022-10-05T16:00:22.050Z,1.67
2022-10-05T16:03:08.853Z,1.80
2022-10-05T16:05:55.072Z,1.80
2022-10-05T16:08:51.217Z,1.83
2022-10-05T16:11:45.718Z,1.60
2022-10-05T16:14:13.258Z,1.80
2022-10-05T16:17:33.705Z,2.00
2022-10-05T16:20:25.173Z,2.00
2022-10-05T16:23:08.459Z,2.10
2022-10-05T16:26:02.630Z,1.80
2022-10-05T16:29:00.076Z,1.80
2022-10-05T16:31:47.086Z,2.00
2022-10-05T16:34:41.011Z,1.80
2022-10-05T16:37:26.042Z,1.80
2022-10-05T16:40:11.025Z,1.50
2022-10-05T16:43:01.251Z,2.05
2022-10-05T16:46:01.801Z,1.60
2022-10-05T16:48:47.285Z,2.10
2022-10-05T16:51:09.136Z,2.60
2022-10-05T16:53:59.672Z,1.80
2022-10-05T16:56:30.468Z,1.80
2022-10-05T16:59:49.828Z,2.03
2022-10-05T17:03:01.087Z,2.00
2022-10-05T17:05:30.373Z,2.40
2022-10-05T17:08:10.330Z,2.10
2022-10-05T17:10:57.682Z,1.93
2022-10-05T17:13:37.474Z,2.03
2022-10-05T17:16:46.696Z,2.10
2022-10-05T17:19:40.778Z,2.00
2022-10-05T17:22:26.949Z,2.13
2022-10-05T17:25:18.304Z,2.10
2022-10-05T17:28:15.059Z,2.53
2022-10-05T17:31:25.766Z,2.17
2022-10-05T17:33:59.692Z,2.30
2022-10-05T17:36:21.574Z,2.30
2022-10-05T17:39:21.650Z,2.40
2022-10-05T17:41:44.858Z,2.50
2022-10-05T17:44:20.580Z,2.70
2022-10-05T17:46:47.628Z,2.23
2022-10-05T17:49:40.302Z,2.17
2022-10-05T17:52:39.194Z,2.40
2022-10-05T17:55:28.204Z,2.50
2022-10-05T17:57:50.130Z,2.37
2022-10-05T18:00:32.565Z,2.30
2022-10-05T18:02:58.301Z,2.20
2022-10-05T18:05:29.449Z,2.73
2022-10-05T18:08:13.122Z,2.30
2022-10-05T18:10:39.082Z,2.17
2022-10-05T18:13:34.931Z,2.30
2022-10-05T18:15:56.780Z,2.43
2022-10-05T18:18:42.968Z,2.27
2022-10-05T18:21:14.222Z,2.50
2022-10-05T18:23:37.496Z,2.30
2022-10-05T18:26:23.988Z,2.57
2022-10-05T18:29:40.990Z,2.30
2022-10-05T18:32:25.046Z,2.20
2022-10-05T18:35:11.313Z,2.00
2022-10-05T18:37:57.931Z,2.33
2022-10-05T18:40:34.656Z,2.33
2022-10-05T18:43:38.874Z,2.60
2022-10-05T18:46:10.973Z,2.40
2022-10-05T18:49:10.689Z,2.50
2022-10-05T18:51:55.742Z,2.30
2022-10-05T18:55:04.025Z,2.75
2022-10-05T18:57:45.093Z,2.50
2022-10-05T19:00:22.952Z,2.40
2022-10-05T19:02:51.317Z,2.60
2022-10-05T19:05:48.784Z,2.60
2022-10-05T19:08:17.584Z,2.50
2022-10-05T19:10:50.797Z,2.70
2022-10-05T19:13:27.908Z,2.87
2022-10-05T19:16:22.640Z,2.97
2022-10-05T19:19:29.336Z,3.00
2022-10-05T19:22:16.556Z,3.03
2022-10-05T19:25:04.390Z,3.20
2022-10-05T19:28:07.575Z,2.80
2022-10-05T19:31:01.765Z,2.73
2022-10-05T19:33:37.611Z,2.93
2022-10-05T19:36:23.972Z,2.70
2022-10-05T19:39:12.121Z,3.40
2022-10-05T19:41:59.258Z,3.00
2022-10-05T19:44:42.139Z,2.70
2022-10-05T19:47:48.699Z,2.77
2022-10-05T19:50:33.618Z,2.73
2022-10-05T19:53:02.417Z,2.80
2022-10-05T19:55:34.569Z,2.73
2022-10-05T19:58:02.516Z,2.90
2022-10-05T20:00:35.403Z,2.80
2022-10-05T20:03:23.419Z,2.90
2022-10-05T20:05:46.055Z,2.97
2022-10-05T20:08:17.096Z,3.20
2022-10-05T20:10:39.290Z,3.40
2022-10-05T20:13:04.789Z,3.57
2022-10-05T20:15:50.197Z,3.57
2022-10-05T20:19:02.636Z,3.53
2022-10-05T20:21:52.091Z,3.40
2022-10-05T20:24:25.889Z,3.00
2022-10-05T20:27:09.516Z,2.63
2022-10-05T20:29:41.483Z,2.70
2022-10-05T20:32:08.102Z,2.20
2022-10-05T20:34:31.771Z,2.00
2022-10-05T20:36:53.552Z,1.70
2022-10-05T20:39:16.968Z,1.73
2022-10-05T20:41:38.792Z,1.80
2022-10-05T20:44:00.512Z,1.57
2022-10-05T20:46:23.120Z,1.90
2022-10-05T20:48:45.789Z,1.70
2022-10-05T20:51:07.661Z,1.80
2022-10-05T20:53:29.420Z,1.70
2022-10-05T20:55:51.233Z,2.00
2022-10-05T20:58:12.971Z,2.10
2022-10-05T21:01:00.723Z,1.80
2022-10-05T21:03:22.842Z,1.90
2022-10-05T21:05:46.051Z,1.90
2022-10-05T21:08:08.276Z,2.10
2022-10-05T21:10:30.075Z,2.00
2022-10-05T21:12:52.010Z,2.40
2022-10-05T21:15:13.883Z,2.30
2022-10-05T21:17:36.375Z,2.50
2022-10-05T21:19:58.239Z,2.60
2022-10-05T21:22:19.963Z,2.70
2022-10-05T21:24:41.897Z,2.93
2022-10-05T21:27:05.491Z,2.90
2022-10-05T21:29:27.921Z,2.83
2022-10-05T21:31:49.791Z,3.43
2022-10-05T21:34:11.725Z,3.00
2022-10-05T21:36:33.652Z,3.03
2022-10-05T21:38:56.541Z,3.10
2022-10-05T21:41:19.521Z,3.07
2022-10-05T21:43:42.368Z,3.13
2022-10-05T21:46:04.386Z,2.87
2022-10-05T21:48:26.710Z,2.57
2022-10-05T21:50:48.898Z,2.77
2022-10-05T21:53:14.926Z,2.20
2022-10-05T21:55:41.398Z,1.57
2022-10-05T21:58:03.735Z,1.47
2022-10-05T22:00:25.692Z,1.80
2022-10-05T22:02:48.271Z,1.60
2022-10-05T22:05:10.187Z,1.67
2022-10-05T22:07:32.045Z,1.90
2022-10-05T22:09:53.821Z,1.97
2022-10-05T22:12:16.634Z,1.60
2022-10-05T22:14:38.423Z,1.43
2022-10-05T22:17:00.686Z,1.80
2022-10-05T22:19:22.534Z,1.60
2022-10-05T22:21:44.311Z,1.60
2022-10-05T22:24:07.891Z,1.37
2022-10-05T22:26:30.376Z,1.50
2022-10-05T22:28:56.608Z,1.00
2022-10-05T22:31:19.330Z,1.27
2022-10-05T22:33:41.339Z,1.27
2022-10-05T22:36:04.686Z,1.07
2022-10-05T22:38:27.602Z,1.00
2022-10-05T22:40:49.712Z,1.20
2022-10-05T22:43:12.876Z,1.10
2022-10-05T22:45:34.900Z,1.20
2022-10-05T22:47:56.811Z,1.10
2022-10-05T22:50:18.815Z,1.10
2022-10-05T22:52:41.431Z,0.90
2022-10-05T22:55:03.590Z,0.90
2022-10-05T22:57:25.327Z,1.20
2022-10-05T22:59:47.087Z,1.00
2022-10-05T23:02:09.271Z,1.33
2022-10-05T23:04:31.116Z,1.10
2022-10-05T23:06:52.875Z,1.00
2022-10-05T23:09:14.879Z,0.93
2022-10-05T23:11:36.634Z,1.33
2022-10-05T23:13:59.899Z,0.90
2022-10-05T23:16:25.851Z,1.17
2022-10-05T23:18:50.464Z,1.50
2022-10-05T23:23:38.343Z,1.10
2022-10-05T23:26:01.898Z,1.00
2022-10-05T23:28:23.772Z,1.50
2022-10-05T23:30:45.804Z,1.07
2022-10-05T23:33:07.683Z,1.10
2022-10-05T23:35:29.539Z,1.30
2022-10-05T23:37:51.393Z,1.10
2022-10-05T23:40:14.353Z,1.13
2022-10-05T23:42:36.147Z,1.20
2022-10-05T23:44:57.966Z,1.00
2022-10-05T23:47:19.708Z,1.30
2022-10-05T23:49:41.457Z,1.50
2022-10-05T23:52:03.379Z,1.47
2022-10-05T23:54:25.089Z,1.10
2022-10-05T23:56:46.901Z,1.50
2022-10-05T23:59:08.673Z,1.10
